sensor_id;sensor_type;location;lat;lon;timestamp;temperature;humidity
31046;DHT22;17711;54.018;9.300;2023-03-14T00:02:12;10.70;99.90
31046;DHT22;17711;54.018;9.300;2023-03-14T00:04:43;10.70;99.90
31046;DHT22;17711;54.018;9.300;2023-03-14T00:07:14;10.70;99.90
31046;DHT22;17711;54.018;9.300;2023-03-14T00:10:13;10.70;99.90
31046;DHT22;17711;54.018;9.300;2023-03-14T00:12:50;10.70;99.90
31046;DHT22;17711;54.018;9.300;2023-03-14T00:15:34;10.60;99.90
31046;DHT22;17711;54.018;9.300;2023-03-14T00:18:05;10.60;99.90
31046;DHT22;17711;54.018;9.300;2023-03-14T00:20:38;10.60;99.90
31046;DHT22;17711;54.018;9.300;2023-03-14T00:23:08;10.70;99.90
31046;DHT22;17711;54.018;9.300;2023-03-14T00:25:45;10.70;99.90
31046;DHT22;17711;54.018;9.300;2023-03-14T00:28:40;10.60;99.90
31046;DHT22;17711;54.018;9.300;2023-03-14T00:31:24;10.60;99.90
31046;DHT22;17711;54.018;9.300;2023-03-14T00:33:57;10.50;99.90
31046;DHT22;17711;54.018;9.300;2023-03-14T00:36:33;10.60;99.90
31046;DHT22;17711;54.018;9.300;2023-03-14T00:39:04;10.50;99.90
31046;DHT22;17711;54.018;9.300;2023-03-14T00:41:34;10.50;99.90
31046;DHT22;17711;54.018;9.300;2023-03-14T00:44:13;10.50;99.90
31046;DHT22;17711;54.018;9.300;2023-03-14T00:46:43;10.50;99.90
31046;DHT22;17711;54.018;9.300;2023-03-14T00:49:22;10.50;99.90
31046;DHT22;17711;54.018;9.300;2023-03-14T00:51:59;10.40;99.90
31046;DHT22;17711;54.018;9.300;2023-03-14T00:54:32;10.40;99.90
31046;DHT22;17711;54.018;9.300;2023-03-14T00:57:02;10.40;99.90
31046;DHT22;17711;54.018;9.300;2023-03-14T00:59:32;10.40;99.90
31046;DHT22;17711;54.018;9.300;2023-03-14T01:02:15;10.40;99.90
31046;DHT22;17711;54.018;9.300;2023-03-14T01:04:47;10.50;99.90
31046;DHT22;17711;54.018;9.300;2023-03-14T01:07:21;10.40;99.90
31046;DHT22;17711;54.018;9.300;2023-03-14T01:09:53;10.50;99.90
31046;DHT22;17711;54.018;9.300;2023-03-14T01:12:24;10.50;99.90
31046;DHT22;17711;54.018;9.300;2023-03-14T01:15:01;10.50;99.90
31046;DHT22;17711;54.018;9.300;2023-03-14T01:17:37;10.40;99.90
31046;DHT22;17711;54.018;9.300;2023-03-14T01:20:10;10.40;99.90
31046;DHT22;17711;54.018;9.300;2023-03-14T01:22:44;10.50;99.90
31046;DHT22;17711;54.018;9.300;2023-03-14T01:25:15;10.50;99.90
31046;DHT22;17711;54.018;9.300;2023-03-14T01:27:47;10.60;99.90
31046;DHT22;17711;54.018;9.300;2023-03-14T01:30:17;10.60;99.90
31046;DHT22;17711;54.018;9.300;2023-03-14T01:33:16;10.60;99.90
31046;DHT22;17711;54.018;9.300;2023-03-14T01:35:50;10.70;99.90
31046;DHT22;17711;54.018;9.300;2023-03-14T01:38:23;10.70;99.90
31046;DHT22;17711;54.018;9.300;2023-03-14T01:41:00;10.70;99.90
31046;DHT22;17711;54.018;9.300;2023-03-14T01:43:45;10.80;99.90
31046;DHT22;17711;54.018;9.300;2023-03-14T01:46:36;10.90;99.90
31046;DHT22;17711;54.018;9.300;2023-03-14T01:49:20;10.90;99.90
31046;DHT22;17711;54.018;9.300;2023-03-14T01:52:10;10.90;99.90
31046;DHT22;17711;54.018;9.300;2023-03-14T01:54:46;10.90;99.90
31046;DHT22;17711;54.018;9.300;2023-03-14T01:57:20;11.00;99.90
31046;DHT22;17711;54.018;9.300;2023-03-14T01:59:58;11.00;99.90
31046;DHT22;17711;54.018;9.300;2023-03-14T02:02:35;11.00;99.90
31046;DHT22;17711;54.018;9.300;2023-03-14T02:05:35;11.00;99.90
31046;DHT22;17711;54.018;9.300;2023-03-14T02:08:15;10.90;99.90
31046;DHT22;17711;54.018;9.300;2023-03-14T02:10:58;11.00;99.90
31046;DHT22;17711;54.018;9.300;2023-03-14T02:13:38;10.90;99.90
31046;DHT22;17711;54.018;9.300;2023-03-14T02:16:11;10.90;99.90
31046;DHT22;17711;54.018;9.300;2023-03-14T02:18:42;10.80;99.90
31046;DHT22;17711;54.018;9.300;2023-03-14T02:21:24;10.80;99.90
31046;DHT22;17711;54.018;9.300;2023-03-14T02:24:09;10.80;99.90
31046;DHT22;17711;54.018;9.300;2023-03-14T02:30:00;10.80;99.90
31046;DHT22;17711;54.018;9.300;2023-03-14T02:32:36;10.90;99.90
31046;DHT22;17711;54.018;9.300;2023-03-14T02:35:12;10.90;99.90
31046;DHT22;17711;54.018;9.300;2023-03-14T02:37:47;10.90;99.90
31046;DHT22;17711;54.018;9.300;2023-03-14T02:40:19;10.90;99.90
31046;DHT22;17711;54.018;9.300;2023-03-14T02:42:49;11.00;99.90
31046;DHT22;17711;54.018;9.300;2023-03-14T02:45:44;11.00;99.90
31046;DHT22;17711;54.018;9.300;2023-03-14T02:49:00;11.00;99.90
31046;DHT22;17711;54.018;9.300;2023-03-14T02:51:35;11.10;99.90
31046;DHT22;17711;54.018;9.300;2023-03-14T02:54:07;11.10;99.90
31046;DHT22;17711;54.018;9.300;2023-03-14T02:56:40;11.10;99.90
31046;DHT22;17711;54.018;9.300;2023-03-14T02:59:09;11.00;99.90
31046;DHT22;17711;54.018;9.300;2023-03-14T03:01:43;11.00;99.90
31046;DHT22;17711;54.018;9.300;2023-03-14T03:04:53;11.00;99.90
31046;DHT22;17711;54.018;9.300;2023-03-14T03:07:28;11.00;99.90
31046;DHT22;17711;54.018;9.300;2023-03-14T03:10:09;10.90;99.90
31046;DHT22;17711;54.018;9.300;2023-03-14T03:12:53;11.00;99.90
31046;DHT22;17711;54.018;9.300;2023-03-14T03:15:25;10.90;99.90
31046;DHT22;17711;54.018;9.300;2023-03-14T03:18:10;11.00;99.90
31046;DHT22;17711;54.018;9.300;2023-03-14T03:20:43;10.90;99.90
31046;DHT22;17711;54.018;9.300;2023-03-14T03:23:14;10.90;99.90
31046;DHT22;17711;54.018;9.300;2023-03-14T03:25:48;10.80;99.90
31046;DHT22;17711;54.018;9.300;2023-03-14T03:28:26;10.80;99.90
31046;DHT22;17711;54.018;9.300;2023-03-14T03:31:12;10.70;99.90
31046;DHT22;17711;54.018;9.300;2023-03-14T03:33:57;10.70;99.90
31046;DHT22;17711;54.018;9.300;2023-03-14T03:36:30;10.60;99.90
31046;DHT22;17711;54.018;9.300;2023-03-14T03:38:59;10.40;99.90
31046;DHT22;17711;54.018;9.300;2023-03-14T03:41:29;10.30;99.90
31046;DHT22;17711;54.018;9.300;2023-03-14T03:44:09;10.20;99.90
31046;DHT22;17711;54.018;9.300;2023-03-14T03:46:46;10.10;99.90
31046;DHT22;17711;54.018;9.300;2023-03-14T03:49:28;10.10;99.90
31046;DHT22;17711;54.018;9.300;2023-03-14T03:52:00;10.10;99.90
31046;DHT22;17711;54.018;9.300;2023-03-14T03:54:38;10.00;99.90
31046;DHT22;17711;54.018;9.300;2023-03-14T03:57:10;10.00;99.90
31046;DHT22;17711;54.018;9.300;2023-03-14T03:59:40;9.90;99.90
31046;DHT22;17711;54.018;9.300;2023-03-14T04:02:13;9.90;99.90
31046;DHT22;17711;54.018;9.300;2023-03-14T04:04:48;9.90;99.90
31046;DHT22;17711;54.018;9.300;2023-03-14T04:07:19;9.90;99.90
31046;DHT22;17711;54.018;9.300;2023-03-14T04:10:08;9.90;99.90
31046;DHT22;17711;54.018;9.300;2023-03-14T04:12:39;9.90;99.90
31046;DHT22;17711;54.018;9.300;2023-03-14T04:15:10;9.80;99.90
31046;DHT22;17711;54.018;9.300;2023-03-14T04:17:47;9.80;99.90
31046;DHT22;17711;54.018;9.300;2023-03-14T04:20:21;9.80;99.90
31046;DHT22;17711;54.018;9.300;2023-03-14T04:22:56;9.70;99.90
31046;DHT22;17711;54.018;9.300;2023-03-14T04:25:41;9.70;99.90
31046;DHT22;17711;54.018;9.300;2023-03-14T04:28:23;9.70;99.90
31046;DHT22;17711;54.018;9.300;2023-03-14T04:31:12;9.70;99.90
31046;DHT22;17711;54.018;9.300;2023-03-14T04:33:43;9.70;99.90
31046;DHT22;17711;54.018;9.300;2023-03-14T04:36:14;9.70;99.90
31046;DHT22;17711;54.018;9.300;2023-03-14T04:38:45;9.70;99.90
31046;DHT22;17711;54.018;9.300;2023-03-14T04:41:24;9.60;99.90
31046;DHT22;17711;54.018;9.300;2023-03-14T04:43:59;9.60;99.90
31046;DHT22;17711;54.018;9.300;2023-03-14T04:46:37;9.50;99.90
31046;DHT22;17711;54.018;9.300;2023-03-14T04:49:07;9.50;99.90
31046;DHT22;17711;54.018;9.300;2023-03-14T04:51:37;9.50;99.90
31046;DHT22;17711;54.018;9.300;2023-03-14T04:54:10;9.50;99.90
31046;DHT22;17711;54.018;9.300;2023-03-14T04:56:41;9.50;99.90
31046;DHT22;17711;54.018;9.300;2023-03-14T04:59:13;9.50;99.90
31046;DHT22;17711;54.018;9.300;2023-03-14T05:01:57;9.50;99.90
31046;DHT22;17711;54.018;9.300;2023-03-14T05:04:33;9.40;99.90
31046;DHT22;17711;54.018;9.300;2023-03-14T05:07:07;9.40;99.90
31046;DHT22;17711;54.018;9.300;2023-03-14T05:09:36;9.40;99.90
31046;DHT22;17711;54.018;9.300;2023-03-14T05:12:07;9.40;99.90
31046;DHT22;17711;54.018;9.300;2023-03-14T05:14:52;9.30;99.90
31046;DHT22;17711;54.018;9.300;2023-03-14T05:17:24;9.20;99.90
31046;DHT22;17711;54.018;9.300;2023-03-14T05:19:56;9.20;99.90
31046;DHT22;17711;54.018;9.300;2023-03-14T05:22:40;9.20;99.90
31046;DHT22;17711;54.018;9.300;2023-03-14T05:25:10;9.20;99.90
31046;DHT22;17711;54.018;9.300;2023-03-14T05:27:45;9.20;99.90
31046;DHT22;17711;54.018;9.300;2023-03-14T05:30:24;9.20;99.90
31046;DHT22;17711;54.018;9.300;2023-03-14T05:32:56;9.20;99.90
31046;DHT22;17711;54.018;9.300;2023-03-14T05:35:36;9.20;99.90
31046;DHT22;17711;54.018;9.300;2023-03-14T05:38:13;9.30;99.90
31046;DHT22;17711;54.018;9.300;2023-03-14T05:40:51;9.20;99.90
31046;DHT22;17711;54.018;9.300;2023-03-14T05:43:50;9.30;99.90
31046;DHT22;17711;54.018;9.300;2023-03-14T05:46:22;9.30;99.90
31046;DHT22;17711;54.018;9.300;2023-03-14T05:48:54;9.30;99.90
31046;DHT22;17711;54.018;9.300;2023-03-14T05:51:25;9.30;99.90
31046;DHT22;17711;54.018;9.300;2023-03-14T05:53:57;9.40;99.90
31046;DHT22;17711;54.018;9.300;2023-03-14T05:56:27;9.40;99.90
31046;DHT22;17711;54.018;9.300;2023-03-14T05:59:08;9.50;99.90
31046;DHT22;17711;54.018;9.300;2023-03-14T06:01:43;9.50;99.90
31046;DHT22;17711;54.018;9.300;2023-03-14T06:04:14;9.60;99.90
31046;DHT22;17711;54.018;9.300;2023-03-14T06:06:45;9.60;99.90
31046;DHT22;17711;54.018;9.300;2023-03-14T06:09:17;9.70;99.90
31046;DHT22;17711;54.018;9.300;2023-03-14T06:11:48;9.70;99.90
31046;DHT22;17711;54.018;9.300;2023-03-14T06:14:56;9.70;99.90
31046;DHT22;17711;54.018;9.300;2023-03-14T06:17:26;9.80;99.90
31046;DHT22;17711;54.018;9.300;2023-03-14T06:19:55;9.80;99.90
31046;DHT22;17711;54.018;9.300;2023-03-14T06:22:27;9.80;99.90
31046;DHT22;17711;54.018;9.300;2023-03-14T06:24:59;9.80;99.90
31046;DHT22;17711;54.018;9.300;2023-03-14T06:27:28;9.80;99.90
31046;DHT22;17711;54.018;9.300;2023-03-14T06:29:59;9.80;99.90
31046;DHT22;17711;54.018;9.300;2023-03-14T06:32:30;9.80;99.90
31046;DHT22;17711;54.018;9.300;2023-03-14T06:35:00;9.80;99.90
31046;DHT22;17711;54.018;9.300;2023-03-14T06:37:30;9.80;99.90
31046;DHT22;17711;54.018;9.300;2023-03-14T06:40:14;9.90;99.90
31046;DHT22;17711;54.018;9.300;2023-03-14T06:42:49;9.90;99.90
31046;DHT22;17711;54.018;9.300;2023-03-14T06:45:24;10.00;99.90
31046;DHT22;17711;54.018;9.300;2023-03-14T06:47:54;10.00;99.90
31046;DHT22;17711;54.018;9.300;2023-03-14T06:50:26;9.90;99.90
31046;DHT22;17711;54.018;9.300;2023-03-14T06:52:56;10.00;99.90
31046;DHT22;17711;54.018;9.300;2023-03-14T06:55:44;10.10;99.90
31046;DHT22;17711;54.018;9.300;2023-03-14T06:58:16;10.10;99.90
31046;DHT22;17711;54.018;9.300;2023-03-14T07:00:49;10.20;99.90
31046;DHT22;17711;54.018;9.300;2023-03-14T07:03:19;10.10;99.90
31046;DHT22;17711;54.018;9.300;2023-03-14T07:06:20;10.10;99.90
31046;DHT22;17711;54.018;9.300;2023-03-14T07:09:00;10.10;99.90
31046;DHT22;17711;54.018;9.300;2023-03-14T07:11:33;10.10;99.90
31046;DHT22;17711;54.018;9.300;2023-03-14T07:14:04;10.00;99.90
31046;DHT22;17711;54.018;9.300;2023-03-14T07:16:36;10.00;99.90
31046;DHT22;17711;54.018;9.300;2023-03-14T07:19:06;10.00;99.90
31046;DHT22;17711;54.018;9.300;2023-03-14T07:21:40;10.00;99.90
31046;DHT22;17711;54.018;9.300;2023-03-14T07:24:10;10.00;99.90
31046;DHT22;17711;54.018;9.300;2023-03-14T07:26:48;10.00;99.90
31046;DHT22;17711;54.018;9.300;2023-03-14T07:29:16;10.10;99.90
31046;DHT22;17711;54.018;9.300;2023-03-14T07:31:48;10.20;99.90
31046;DHT22;17711;54.018;9.300;2023-03-14T07:34:20;10.20;99.90
31046;DHT22;17711;54.018;9.300;2023-03-14T07:36:49;10.20;99.90
31046;DHT22;17711;54.018;9.300;2023-03-14T07:39:19;10.20;99.90
31046;DHT22;17711;54.018;9.300;2023-03-14T07:42:02;10.20;99.90
31046;DHT22;17711;54.018;9.300;2023-03-14T07:44:33;10.20;99.90
31046;DHT22;17711;54.018;9.300;2023-03-14T07:47:02;10.30;99.90
31046;DHT22;17711;54.018;9.300;2023-03-14T07:49:32;10.20;99.90
31046;DHT22;17711;54.018;9.300;2023-03-14T07:52:03;10.20;99.90
31046;DHT22;17711;54.018;9.300;2023-03-14T07:54:35;10.20;99.90
31046;DHT22;17711;54.018;9.300;2023-03-14T07:57:07;10.30;99.90
31046;DHT22;17711;54.018;9.300;2023-03-14T07:59:39;10.20;99.90
31046;DHT22;17711;54.018;9.300;2023-03-14T08:02:11;10.20;99.90
31046;DHT22;17711;54.018;9.300;2023-03-14T08:04:43;10.20;99.90
31046;DHT22;17711;54.018;9.300;2023-03-14T08:07:15;10.10;99.90
31046;DHT22;17711;54.018;9.300;2023-03-14T08:09:58;10.10;99.90
31046;DHT22;17711;54.018;9.300;2023-03-14T08:12:29;10.10;99.90
31046;DHT22;17711;54.018;9.300;2023-03-14T08:15:01;10.10;99.90
31046;DHT22;17711;54.018;9.300;2023-03-14T08:17:31;10.10;99.90
31046;DHT22;17711;54.018;9.300;2023-03-14T08:20:02;10.10;99.90
31046;DHT22;17711;54.018;9.300;2023-03-14T08:22:38;10.10;99.90
31046;DHT22;17711;54.018;9.300;2023-03-14T08:25:07;10.00;99.90
31046;DHT22;17711;54.018;9.300;2023-03-14T08:27:50;10.00;99.90
31046;DHT22;17711;54.018;9.300;2023-03-14T08:30:24;9.90;99.90
31046;DHT22;17711;54.018;9.300;2023-03-14T08:32:53;9.80;99.90
31046;DHT22;17711;54.018;9.300;2023-03-14T08:35:51;9.60;99.90
31046;DHT22;17711;54.018;9.300;2023-03-14T08:38:26;9.40;99.90
31046;DHT22;17711;54.018;9.300;2023-03-14T08:41:03;9.10;99.90
31046;DHT22;17711;54.018;9.300;2023-03-14T08:43:45;9.00;99.90
31046;DHT22;17711;54.018;9.300;2023-03-14T08:46:15;8.90;99.90
31046;DHT22;17711;54.018;9.300;2023-03-14T08:48:46;8.80;99.90
31046;DHT22;17711;54.018;9.300;2023-03-14T08:51:25;8.80;99.90
31046;DHT22;17711;54.018;9.300;2023-03-14T08:53:57;8.80;99.90
31046;DHT22;17711;54.018;9.300;2023-03-14T08:56:28;8.90;99.90
31046;DHT22;17711;54.018;9.300;2023-03-14T08:59:23;8.70;99.90
31046;DHT22;17711;54.018;9.300;2023-03-14T09:01:53;8.40;99.90
31046;DHT22;17711;54.018;9.300;2023-03-14T09:04:26;8.30;99.90
31046;DHT22;17711;54.018;9.300;2023-03-14T09:07:03;8.20;99.90
31046;DHT22;17711;54.018;9.300;2023-03-14T09:09:42;8.10;99.90
31046;DHT22;17711;54.018;9.300;2023-03-14T09:12:30;7.90;99.90
31046;DHT22;17711;54.018;9.300;2023-03-14T09:15:02;7.90;99.90
31046;DHT22;17711;54.018;9.300;2023-03-14T09:17:32;7.90;99.90
31046;DHT22;17711;54.018;9.300;2023-03-14T09:20:05;7.90;99.90
31046;DHT22;17711;54.018;9.300;2023-03-14T09:22:42;7.80;99.90
31046;DHT22;17711;54.018;9.300;2023-03-14T09:25:12;7.70;99.90
31046;DHT22;17711;54.018;9.300;2023-03-14T09:27:45;7.70;99.90
31046;DHT22;17711;54.018;9.300;2023-03-14T09:30:25;7.60;99.90
31046;DHT22;17711;54.018;9.300;2023-03-14T09:32:55;7.60;99.90
31046;DHT22;17711;54.018;9.300;2023-03-14T09:35:27;7.70;99.90
31046;DHT22;17711;54.018;9.300;2023-03-14T09:38:14;7.70;99.90
31046;DHT22;17711;54.018;9.300;2023-03-14T09:40:47;7.80;99.90
31046;DHT22;17711;54.018;9.300;2023-03-14T09:43:17;7.80;99.90
31046;DHT22;17711;54.018;9.300;2023-03-14T09:45:54;7.80;99.90
31046;DHT22;17711;54.018;9.300;2023-03-14T09:48:29;7.90;99.90
31046;DHT22;17711;54.018;9.300;2023-03-14T09:51:01;7.90;99.90
31046;DHT22;17711;54.018;9.300;2023-03-14T09:53:40;7.90;99.90
31046;DHT22;17711;54.018;9.300;2023-03-14T09:56:35;8.00;99.90
31046;DHT22;17711;54.018;9.300;2023-03-14T09:59:11;8.10;99.90
31046;DHT22;17711;54.018;9.300;2023-03-14T10:01:42;8.20;99.90
31046;DHT22;17711;54.018;9.300;2023-03-14T10:04:15;8.20;99.90
31046;DHT22;17711;54.018;9.300;2023-03-14T10:06:55;8.40;99.90
31046;DHT22;17711;54.018;9.300;2023-03-14T10:09:26;8.80;99.90
31046;DHT22;17711;54.018;9.300;2023-03-14T10:11:58;8.80;99.90
31046;DHT22;17711;54.018;9.300;2023-03-14T10:14:37;8.90;99.90
31046;DHT22;17711;54.018;9.300;2023-03-14T10:17:26;8.80;99.90
31046;DHT22;17711;54.018;9.300;2023-03-14T10:20:06;8.80;99.90
31046;DHT22;17711;54.018;9.300;2023-03-14T10:23:28;8.80;99.90
31046;DHT22;17711;54.018;9.300;2023-03-14T10:26:07;9.10;99.90
31046;DHT22;17711;54.018;9.300;2023-03-14T10:28:45;9.60;99.90
31046;DHT22;17711;54.018;9.300;2023-03-14T10:31:18;10.00;99.90
31046;DHT22;17711;54.018;9.300;2023-03-14T10:34:05;10.40;99.90
31046;DHT22;17711;54.018;9.300;2023-03-14T10:36:41;10.30;99.90
31046;DHT22;17711;54.018;9.300;2023-03-14T10:39:41;10.30;99.90
31046;DHT22;17711;54.018;9.300;2023-03-14T10:42:24;10.50;99.90
31046;DHT22;17711;54.018;9.300;2023-03-14T10:45:01;11.00;99.90
31046;DHT22;17711;54.018;9.300;2023-03-14T10:47:32;11.10;99.90
31046;DHT22;17711;54.018;9.300;2023-03-14T10:50:30;11.00;99.90
31046;DHT22;17711;54.018;9.300;2023-03-14T10:53:10;10.90;99.90
31046;DHT22;17711;54.018;9.300;2023-03-14T10:55:41;10.90;99.90
31046;DHT22;17711;54.018;9.300;2023-03-14T10:58:23;10.80;99.90
31046;DHT22;17711;54.018;9.300;2023-03-14T11:04:05;10.50;99.90
31046;DHT22;17711;54.018;9.300;2023-03-14T11:07:11;10.30;99.90
31046;DHT22;17711;54.018;9.300;2023-03-14T11:09:56;10.10;99.90
31046;DHT22;17711;54.018;9.300;2023-03-14T11:12:38;9.90;99.90
31046;DHT22;17711;54.018;9.300;2023-03-14T11:15:14;9.50;99.90
31046;DHT22;17711;54.018;9.300;2023-03-14T11:18:00;9.30;99.90
31046;DHT22;17711;54.018;9.300;2023-03-14T11:21:23;9.00;99.90
31046;DHT22;17711;54.018;9.300;2023-03-14T11:24:27;8.90;99.90
31046;DHT22;17711;54.018;9.300;2023-03-14T11:27:06;9.20;99.90
31046;DHT22;17711;54.018;9.300;2023-03-14T11:30:17;9.40;99.90
31046;DHT22;17711;54.018;9.300;2023-03-14T11:33:04;9.60;99.90
31046;DHT22;17711;54.018;9.300;2023-03-14T11:35:51;9.70;99.90
31046;DHT22;17711;54.018;9.300;2023-03-14T11:38:30;9.70;99.90
31046;DHT22;17711;54.018;9.300;2023-03-14T11:41:19;9.60;99.90
31046;DHT22;17711;54.018;9.300;2023-03-14T11:43:54;9.40;99.90
31046;DHT22;17711;54.018;9.300;2023-03-14T11:46:29;9.40;99.90
31046;DHT22;17711;54.018;9.300;2023-03-14T11:49:05;9.40;99.90
31046;DHT22;17711;54.018;9.300;2023-03-14T11:51:39;9.40;99.90
31046;DHT22;17711;54.018;9.300;2023-03-14T11:54:16;9.30;99.90
31046;DHT22;17711;54.018;9.300;2023-03-14T11:57:02;9.30;99.90
31046;DHT22;17711;54.018;9.300;2023-03-14T11:59:45;9.50;99.90
31046;DHT22;17711;54.018;9.300;2023-03-14T12:02:23;10.10;99.90
31046;DHT22;17711;54.018;9.300;2023-03-14T12:08:47;11.20;99.90
31046;DHT22;17711;54.018;9.300;2023-03-14T12:11:23;11.10;99.90
31046;DHT22;17711;54.018;9.300;2023-03-14T12:13:56;10.90;99.90
31046;DHT22;17711;54.018;9.300;2023-03-14T12:16:36;10.70;99.90
31046;DHT22;17711;54.018;9.300;2023-03-14T12:19:30;10.70;99.90
31046;DHT22;17711;54.018;9.300;2023-03-14T12:22:24;10.80;99.90
31046;DHT22;17711;54.018;9.300;2023-03-14T12:25:15;10.80;99.90
31046;DHT22;17711;54.018;9.300;2023-03-14T12:28:16;10.50;99.90
31046;DHT22;17711;54.018;9.300;2023-03-14T12:34:31;10.30;99.90
31046;DHT22;17711;54.018;9.300;2023-03-14T12:40:03;10.50;99.90
31046;DHT22;17711;54.018;9.300;2023-03-14T12:42:45;10.70;99.90
31046;DHT22;17711;54.018;9.300;2023-03-14T12:45:27;10.90;99.90
31046;DHT22;17711;54.018;9.300;2023-03-14T12:48:22;10.90;99.90
31046;DHT22;17711;54.018;9.300;2023-03-14T12:51:00;10.60;99.90
31046;DHT22;17711;54.018;9.300;2023-03-14T12:54:21;10.40;99.90
31046;DHT22;17711;54.018;9.300;2023-03-14T12:57:17;10.50;99.90
31046;DHT22;17711;54.018;9.300;2023-03-14T12:59:51;11.00;99.90
31046;DHT22;17711;54.018;9.300;2023-03-14T13:02:37;11.10;99.90
31046;DHT22;17711;54.018;9.300;2023-03-14T13:05:13;10.50;99.90
31046;DHT22;17711;54.018;9.300;2023-03-14T13:08:10;10.40;99.90
31046;DHT22;17711;54.018;9.300;2023-03-14T13:10:49;11.30;99.90
31046;DHT22;17711;54.018;9.300;2023-03-14T13:13:22;12.20;93.30
31046;DHT22;17711;54.018;9.300;2023-03-14T13:15:57;12.30;98.60
31046;DHT22;17711;54.018;9.300;2023-03-14T13:18:33;12.30;99.90
31046;DHT22;17711;54.018;9.300;2023-03-14T13:21:10;12.20;87.00
31046;DHT22;17711;54.018;9.300;2023-03-14T13:24:17;12.00;99.90
31046;DHT22;17711;54.018;9.300;2023-03-14T13:26:52;12.30;99.90
31046;DHT22;17711;54.018;9.300;2023-03-14T13:29:24;12.20;75.40
31046;DHT22;17711;54.018;9.300;2023-03-14T13:31:54;12.90;99.90
31046;DHT22;17711;54.018;9.300;2023-03-14T13:34:28;13.70;77.20
31046;DHT22;17711;54.018;9.300;2023-03-14T13:37:00;13.20;70.50
31046;DHT22;17711;54.018;9.300;2023-03-14T13:39:37;13.40;71.00
31046;DHT22;17711;54.018;9.300;2023-03-14T13:42:14;14.30;57.80
31046;DHT22;17711;54.018;9.300;2023-03-14T13:44:48;14.20;51.90
31046;DHT22;17711;54.018;9.300;2023-03-14T13:47:21;15.10;54.70
31046;DHT22;17711;54.018;9.300;2023-03-14T13:49:52;16.40;52.40
31046;DHT22;17711;54.018;9.300;2023-03-14T13:52:30;17.20;44.80
31046;DHT22;17711;54.018;9.300;2023-03-14T13:55:05;17.90;45.20
31046;DHT22;17711;54.018;9.300;2023-03-14T13:57:45;18.20;41.60
31046;DHT22;17711;54.018;9.300;2023-03-14T14:00:20;18.00;39.60
31046;DHT22;17711;54.018;9.300;2023-03-14T14:02:59;17.50;42.10
31046;DHT22;17711;54.018;9.300;2023-03-14T14:05:31;18.10;43.50
31046;DHT22;17711;54.018;9.300;2023-03-14T14:08:05;18.90;42.00
31046;DHT22;17711;54.018;9.300;2023-03-14T14:10:41;19.10;37.40
31046;DHT22;17711;54.018;9.300;2023-03-14T14:13:15;19.10;37.60
31046;DHT22;17711;54.018;9.300;2023-03-14T14:15:48;18.20;35.40
31046;DHT22;17711;54.018;9.300;2023-03-14T14:18:26;17.50;39.00
31046;DHT22;17711;54.018;9.300;2023-03-14T14:20:58;16.90;39.60
31046;DHT22;17711;54.018;9.300;2023-03-14T14:23:30;16.50;39.10
31046;DHT22;17711;54.018;9.300;2023-03-14T14:26:06;15.80;43.20
31046;DHT22;17711;54.018;9.300;2023-03-14T14:28:43;15.70;45.70
31046;DHT22;17711;54.018;9.300;2023-03-14T14:31:20;15.30;47.00
31046;DHT22;17711;54.018;9.300;2023-03-14T14:33:57;14.70;50.10
31046;DHT22;17711;54.018;9.300;2023-03-14T14:36:30;13.80;52.30
31046;DHT22;17711;54.018;9.300;2023-03-14T14:39:05;13.10;57.00
31046;DHT22;17711;54.018;9.300;2023-03-14T14:41:52;13.50;67.00
31046;DHT22;17711;54.018;9.300;2023-03-14T14:44:30;14.00;54.00
31046;DHT22;17711;54.018;9.300;2023-03-14T14:47:03;13.90;47.10
31046;DHT22;17711;54.018;9.300;2023-03-14T14:49:41;14.00;52.50
31046;DHT22;17711;54.018;9.300;2023-03-14T14:52:17;14.20;48.80
31046;DHT22;17711;54.018;9.300;2023-03-14T14:54:52;14.20;49.40
31046;DHT22;17711;54.018;9.300;2023-03-14T14:57:49;14.40;50.00
31046;DHT22;17711;54.018;9.300;2023-03-14T15:00:23;14.80;47.60
31046;DHT22;17711;54.018;9.300;2023-03-14T15:03:04;15.00;47.20
31046;DHT22;17711;54.018;9.300;2023-03-14T15:05:39;15.20;45.10
31046;DHT22;17711;54.018;9.300;2023-03-14T15:08:11;14.40;43.80
31046;DHT22;17711;54.018;9.300;2023-03-14T15:10:42;13.80;46.50
31046;DHT22;17711;54.018;9.300;2023-03-14T15:13:16;13.10;45.80
31046;DHT22;17711;54.018;9.300;2023-03-14T15:15:49;12.40;50.80
31046;DHT22;17711;54.018;9.300;2023-03-14T15:18:29;11.80;52.70
31046;DHT22;17711;54.018;9.300;2023-03-14T15:21:04;11.40;58.50
31046;DHT22;17711;54.018;9.300;2023-03-14T15:23:39;11.00;61.30
31046;DHT22;17711;54.018;9.300;2023-03-14T15:26:18;10.50;85.70
31046;DHT22;17711;54.018;9.300;2023-03-14T15:28:52;10.30;99.90
31046;DHT22;17711;54.018;9.300;2023-03-14T15:31:55;10.20;99.90
31046;DHT22;17711;54.018;9.300;2023-03-14T15:34:30;10.20;96.40
31046;DHT22;17711;54.018;9.300;2023-03-14T15:37:03;10.10;97.70
31046;DHT22;17711;54.018;9.300;2023-03-14T15:39:37;10.20;99.90
31046;DHT22;17711;54.018;9.300;2023-03-14T15:42:08;10.00;99.40
31046;DHT22;17711;54.018;9.300;2023-03-14T15:44:50;10.00;93.30
31046;DHT22;17711;54.018;9.300;2023-03-14T15:47:20;10.10;99.90
31046;DHT22;17711;54.018;9.300;2023-03-14T15:49:53;10.10;90.90
31046;DHT22;17711;54.018;9.300;2023-03-14T15:52:22;10.10;85.50
31046;DHT22;17711;54.018;9.300;2023-03-14T15:55:03;9.80;92.60
31046;DHT22;17711;54.018;9.300;2023-03-14T15:57:38;9.60;99.90
31046;DHT22;17711;54.018;9.300;2023-03-14T16:00:14;9.30;99.90
31046;DHT22;17711;54.018;9.300;2023-03-14T16:02:49;9.20;99.90
31046;DHT22;17711;54.018;9.300;2023-03-14T16:05:18;9.10;99.90
31046;DHT22;17711;54.018;9.300;2023-03-14T16:07:54;9.00;99.90
31046;DHT22;17711;54.018;9.300;2023-03-14T16:10:27;8.80;99.90
31046;DHT22;17711;54.018;9.300;2023-03-14T16:12:58;8.80;99.90
31046;DHT22;17711;54.018;9.300;2023-03-14T16:15:35;8.80;99.90
31046;DHT22;17711;54.018;9.300;2023-03-14T16:18:04;8.80;99.90
31046;DHT22;17711;54.018;9.300;2023-03-14T16:20:57;8.70;99.90
31046;DHT22;17711;54.018;9.300;2023-03-14T16:23:29;8.40;99.90
31046;DHT22;17711;54.018;9.300;2023-03-14T16:26:17;8.20;99.90
31046;DHT22;17711;54.018;9.300;2023-03-14T16:28:50;8.10;99.90
31046;DHT22;17711;54.018;9.300;2023-03-14T16:31:26;8.10;99.90
31046;DHT22;17711;54.018;9.300;2023-03-14T16:34:00;8.10;99.90
31046;DHT22;17711;54.018;9.300;2023-03-14T16:36:32;8.10;99.90
31046;DHT22;17711;54.018;9.300;2023-03-14T16:39:07;8.00;99.90
31046;DHT22;17711;54.018;9.300;2023-03-14T16:41:39;7.90;99.90
31046;DHT22;17711;54.018;9.300;2023-03-14T16:44:14;7.80;99.90
31046;DHT22;17711;54.018;9.300;2023-03-14T16:46:58;7.70;99.90
31046;DHT22;17711;54.018;9.300;2023-03-14T16:49:29;7.50;99.90
31046;DHT22;17711;54.018;9.300;2023-03-14T16:52:09;7.30;99.90
31046;DHT22;17711;54.018;9.300;2023-03-14T16:54:52;7.20;99.90
31046;DHT22;17711;54.018;9.300;2023-03-14T16:57:25;7.10;99.90
31046;DHT22;17711;54.018;9.300;2023-03-14T17:00:02;7.10;99.90